sensor_id;sensor_type;location;lat;lon;timestamp;P1;durP1;ratioP1;P2;durP2;ratioP2
1507;SDS011;745;48.586;10.032;2024-01-16T00:00:52;5.10;;;3.60;;
1507;SDS011;745;48.586;10.032;2024-01-16T00:02:52;5.57;;;3.60;;
1507;SDS011;745;48.586;10.032;2024-01-16T00:04:52;3.83;;;3.37;;
1507;SDS011;745;48.586;10.032;2024-01-16T00:06:53;7.40;;;3.70;;
1507;SDS011;745;48.586;10.032;2024-01-16T00:08:53;5.03;;;3.77;;
1507;SDS011;745;48.586;10.032;2024-01-16T00:10:53;7.20;;;3.50;;
1507;SDS011;745;48.586;10.032;2024-01-16T00:12:54;5.23;;;3.43;;
1507;SDS011;745;48.586;10.032;2024-01-16T00:14:54;3.00;;;2.70;;
1507;SDS011;745;48.586;10.032;2024-01-16T00:16:54;5.37;;;3.97;;
1507;SDS011;745;48.586;10.032;2024-01-16T00:18:55;5.30;;;3.83;;
1507;SDS011;745;48.586;10.032;2024-01-16T00:20:55;4.70;;;3.77;;
1507;SDS011;745;48.586;10.032;2024-01-16T00:22:55;5.93;;;3.70;;
1507;SDS011;745;48.586;10.032;2024-01-16T00:24:56;6.67;;;4.33;;
1507;SDS011;745;48.586;10.032;2024-01-16T00:26:56;6.47;;;4.30;;
1507;SDS011;745;48.586;10.032;2024-01-16T00:28:57;4.57;;;4.10;;
1507;SDS011;745;48.586;10.032;2024-01-16T00:30:57;7.60;;;4.63;;
1507;SDS011;745;48.586;10.032;2024-01-16T00:32:57;6.60;;;4.10;;
1507;SDS011;745;48.586;10.032;2024-01-16T00:34:58;9.90;;;4.47;;
1507;SDS011;745;48.586;10.032;2024-01-16T00:36:59;4.57;;;3.78;;
1507;SDS011;745;48.586;10.032;2024-01-16T00:38:59;9.33;;;5.00;;
1507;SDS011;745;48.586;10.032;2024-01-16T00:41:00;6.80;;;4.30;;
1507;SDS011;745;48.586;10.032;2024-01-16T00:43:00;6.10;;;4.60;;
1507;SDS011;745;48.586;10.032;2024-01-16T00:45:00;5.10;;;4.00;;
1507;SDS011;745;48.586;10.032;2024-01-16T00:47:01;4.60;;;4.07;;
1507;SDS011;745;48.586;10.032;2024-01-16T00:49:01;5.93;;;4.00;;
1507;SDS011;745;48.586;10.032;2024-01-16T00:51:02;8.37;;;4.60;;
1507;SDS011;745;48.586;10.032;2024-01-16T00:53:02;7.33;;;4.50;;
1507;SDS011;745;48.586;10.032;2024-01-16T00:55:03;9.50;;;4.73;;
1507;SDS011;745;48.586;10.032;2024-01-16T00:57:04;6.47;;;4.30;;
1507;SDS011;745;48.586;10.032;2024-01-16T00:59:04;8.40;;;5.23;;
1507;SDS011;745;48.586;10.032;2024-01-16T01:01:05;6.40;;;4.70;;
1507;SDS011;745;48.586;10.032;2024-01-16T01:03:05;8.33;;;4.87;;
1507;SDS011;745;48.586;10.032;2024-01-16T01:05:06;5.83;;;4.90;;
1507;SDS011;745;48.586;10.032;2024-01-16T01:07:08;4.97;;;3.83;;
1507;SDS011;745;48.586;10.032;2024-01-16T01:09:08;6.53;;;4.57;;
1507;SDS011;745;48.586;10.032;2024-01-16T01:11:12;11.30;;;5.15;;
1507;SDS011;745;48.586;10.032;2024-01-16T01:13:13;9.38;;;4.45;;
1507;SDS011;745;48.586;10.032;2024-01-16T01:15:13;5.03;;;4.27;;
1507;SDS011;745;48.586;10.032;2024-01-16T01:17:16;6.57;;;4.60;;
1507;SDS011;745;48.586;10.032;2024-01-16T01:19:16;7.60;;;4.77;;
1507;SDS011;745;48.586;10.032;2024-01-16T01:21:16;4.33;;;3.90;;
1507;SDS011;745;48.586;10.032;2024-01-16T01:23:17;6.73;;;3.63;;
1507;SDS011;745;48.586;10.032;2024-01-16T01:25:18;6.47;;;4.67;;
1507;SDS011;745;48.586;10.032;2024-01-16T01:27:18;3.97;;;3.43;;
1507;SDS011;745;48.586;10.032;2024-01-16T01:29:18;6.13;;;4.63;;
1507;SDS011;745;48.586;10.032;2024-01-16T01:31:19;7.00;;;4.50;;
1507;SDS011;745;48.586;10.032;2024-01-16T01:33:19;6.53;;;3.70;;
1507;SDS011;745;48.586;10.032;2024-01-16T01:35:19;6.10;;;4.20;;
1507;SDS011;745;48.586;10.032;2024-01-16T01:37:20;7.40;;;4.83;;
1507;SDS011;745;48.586;10.032;2024-01-16T01:39:20;6.33;;;4.10;;
1507;SDS011;745;48.586;10.032;2024-01-16T01:41:20;7.53;;;4.13;;
1507;SDS011;745;48.586;10.032;2024-01-16T01:43:22;9.17;;;4.67;;
1507;SDS011;745;48.586;10.032;2024-01-16T01:45:24;4.05;;;3.30;;
1507;SDS011;745;48.586;10.032;2024-01-16T01:47:24;4.00;;;3.60;;
1507;SDS011;745;48.586;10.032;2024-01-16T01:49:25;5.13;;;3.57;;
1507;SDS011;745;48.586;10.032;2024-01-16T01:51:25;4.97;;;3.40;;
1507;SDS011;745;48.586;10.032;2024-01-16T01:53:26;4.43;;;3.33;;
1507;SDS011;745;48.586;10.032;2024-01-16T01:55:26;4.63;;;3.70;;
1507;SDS011;745;48.586;10.032;2024-01-16T01:57:27;4.50;;;3.30;;
1507;SDS011;745;48.586;10.032;2024-01-16T01:59:28;4.47;;;3.53;;
1507;SDS011;745;48.586;10.032;2024-01-16T02:01:29;3.63;;;3.33;;
1507;SDS011;745;48.586;10.032;2024-01-16T02:03:45;3.25;;;2.70;;
1507;SDS011;745;48.586;10.032;2024-01-16T02:05:46;4.55;;;2.95;;
1507;SDS011;745;48.586;10.032;2024-01-16T02:07:46;4.03;;;3.13;;
1507;SDS011;745;48.586;10.032;2024-01-16T02:09:46;4.13;;;3.17;;
1507;SDS011;745;48.586;10.032;2024-01-16T02:11:47;6.03;;;3.60;;
1507;SDS011;745;48.586;10.032;2024-01-16T02:13:47;3.50;;;3.17;;
1507;SDS011;745;48.586;10.032;2024-01-16T02:15:48;6.30;;;3.47;;
1507;SDS011;745;48.586;10.032;2024-01-16T02:17:49;3.90;;;3.60;;
1507;SDS011;745;48.586;10.032;2024-01-16T02:19:49;4.70;;;3.30;;
1507;SDS011;745;48.586;10.032;2024-01-16T02:21:49;4.20;;;2.70;;
1507;SDS011;745;48.586;10.032;2024-01-16T02:23:51;5.35;;;3.55;;
1507;SDS011;745;48.586;10.032;2024-01-16T02:25:51;3.90;;;3.13;;
1507;SDS011;745;48.586;10.032;2024-01-16T02:27:52;6.43;;;3.07;;
1507;SDS011;745;48.586;10.032;2024-01-16T02:29:52;3.57;;;2.97;;
1507;SDS011;745;48.586;10.032;2024-01-16T02:31:53;4.57;;;3.20;;
1507;SDS011;745;48.586;10.032;2024-01-16T02:33:53;3.70;;;3.20;;
1507;SDS011;745;48.586;10.032;2024-01-16T02:35:54;5.00;;;3.37;;
1507;SDS011;745;48.586;10.032;2024-01-16T02:37:54;3.93;;;3.17;;
1507;SDS011;745;48.586;10.032;2024-01-16T02:39:54;4.80;;;3.47;;
1507;SDS011;745;48.586;10.032;2024-01-16T02:41:55;4.50;;;3.43;;
1507;SDS011;745;48.586;10.032;2024-01-16T02:43:55;5.33;;;3.17;;
1507;SDS011;745;48.586;10.032;2024-01-16T02:45:55;5.80;;;3.00;;
1507;SDS011;745;48.586;10.032;2024-01-16T02:47:56;4.77;;;2.90;;
1507;SDS011;745;48.586;10.032;2024-01-16T02:49:56;5.43;;;3.33;;
1507;SDS011;745;48.586;10.032;2024-01-16T02:51:57;4.73;;;3.00;;
1507;SDS011;745;48.586;10.032;2024-01-16T02:53:58;6.63;;;3.08;;
1507;SDS011;745;48.586;10.032;2024-01-16T02:55:58;4.37;;;3.23;;
1507;SDS011;745;48.586;10.032;2024-01-16T02:57:59;3.67;;;3.17;;
1507;SDS011;745;48.586;10.032;2024-01-16T03:00:00;5.70;;;3.17;;
1507;SDS011;745;48.586;10.032;2024-01-16T03:02:00;3.43;;;3.10;;
1507;SDS011;745;48.586;10.032;2024-01-16T03:04:00;5.63;;;3.37;;
1507;SDS011;745;48.586;10.032;2024-01-16T03:06:01;4.10;;;3.20;;
1507;SDS011;745;48.586;10.032;2024-01-16T03:08:01;3.70;;;3.17;;
1507;SDS011;745;48.586;10.032;2024-01-16T03:10:02;5.63;;;3.73;;
1507;SDS011;745;48.586;10.032;2024-01-16T03:12:03;3.88;;;3.03;;
1507;SDS011;745;48.586;10.032;2024-01-16T03:14:04;5.17;;;3.73;;
1507;SDS011;745;48.586;10.032;2024-01-16T03:16:08;7.63;;;3.85;;
1507;SDS011;745;48.586;10.032;2024-01-16T03:18:08;5.75;;;3.63;;
1507;SDS011;745;48.586;10.032;2024-01-16T03:20:09;4.90;;;3.00;;
1507;SDS011;745;48.586;10.032;2024-01-16T03:22:10;6.57;;;3.10;;
1507;SDS011;745;48.586;10.032;2024-01-16T03:24:10;6.53;;;4.50;;
1507;SDS011;745;48.586;10.032;2024-01-16T03:26:13;3.90;;;3.10;;
1507;SDS011;745;48.586;10.032;2024-01-16T03:28:14;3.47;;;3.17;;
1507;SDS011;745;48.586;10.032;2024-01-16T03:30:14;4.63;;;3.30;;
1507;SDS011;745;48.586;10.032;2024-01-16T03:32:14;7.27;;;3.03;;
1507;SDS011;745;48.586;10.032;2024-01-16T03:34:15;5.70;;;3.60;;
1507;SDS011;745;48.586;10.032;2024-01-16T03:36:16;6.30;;;3.20;;
1507;SDS011;745;48.586;10.032;2024-01-16T03:38:16;3.77;;;3.00;;
1507;SDS011;745;48.586;10.032;2024-01-16T03:40:16;6.43;;;3.50;;
1507;SDS011;745;48.586;10.032;2024-01-16T03:42:17;4.13;;;2.90;;
1507;SDS011;745;48.586;10.032;2024-01-16T03:44:17;6.20;;;3.00;;
1507;SDS011;745;48.586;10.032;2024-01-16T03:46:18;5.20;;;3.50;;
1507;SDS011;745;48.586;10.032;2024-01-16T03:48:18;4.10;;;3.40;;
1507;SDS011;745;48.586;10.032;2024-01-16T03:50:19;3.10;;;2.43;;
1507;SDS011;745;48.586;10.032;2024-01-16T03:52:19;4.13;;;3.50;;
1507;SDS011;745;48.586;10.032;2024-01-16T03:54:19;5.43;;;3.27;;
1507;SDS011;745;48.586;10.032;2024-01-16T03:56:20;3.20;;;2.80;;
1507;SDS011;745;48.586;10.032;2024-01-16T03:58:20;7.03;;;3.87;;
1507;SDS011;745;48.586;10.032;2024-01-16T04:00:20;7.23;;;3.63;;
1507;SDS011;745;48.586;10.032;2024-01-16T04:02:20;5.50;;;3.13;;
1507;SDS011;745;48.586;10.032;2024-01-16T04:04:21;4.33;;;2.93;;
1507;SDS011;745;48.586;10.032;2024-01-16T04:06:22;8.55;;;4.72;;
1507;SDS011;745;48.586;10.032;2024-01-16T04:08:23;3.87;;;3.10;;
1507;SDS011;745;48.586;10.032;2024-01-16T04:10:23;4.50;;;3.10;;
1507;SDS011;745;48.586;10.032;2024-01-16T04:12:23;4.17;;;3.20;;
1507;SDS011;745;48.586;10.032;2024-01-16T04:14:24;6.17;;;3.27;;
1507;SDS011;745;48.586;10.032;2024-01-16T04:16:24;5.33;;;3.80;;
1507;SDS011;745;48.586;10.032;2024-01-16T04:18:24;2.73;;;2.53;;
1507;SDS011;745;48.586;10.032;2024-01-16T04:20:25;6.03;;;3.20;;
1507;SDS011;745;48.586;10.032;2024-01-16T04:22:25;4.40;;;3.67;;
1507;SDS011;745;48.586;10.032;2024-01-16T04:24:26;3.23;;;2.93;;
1507;SDS011;745;48.586;10.032;2024-01-16T04:26:26;6.33;;;3.30;;
1507;SDS011;745;48.586;10.032;2024-01-16T04:28:27;4.33;;;3.33;;
1507;SDS011;745;48.586;10.032;2024-01-16T04:30:27;4.60;;;2.97;;
1507;SDS011;745;48.586;10.032;2024-01-16T04:32:27;3.90;;;2.47;;
1507;SDS011;745;48.586;10.032;2024-01-16T04:34:27;4.40;;;3.00;;
1507;SDS011;745;48.586;10.032;2024-01-16T04:36:28;5.23;;;3.40;;
1507;SDS011;745;48.586;10.032;2024-01-16T04:38:28;3.73;;;3.43;;
1507;SDS011;745;48.586;10.032;2024-01-16T04:40:28;4.10;;;3.20;;
1507;SDS011;745;48.586;10.032;2024-01-16T04:42:29;3.57;;;3.27;;
1507;SDS011;745;48.586;10.032;2024-01-16T04:44:29;3.13;;;2.70;;
1507;SDS011;745;48.586;10.032;2024-01-16T04:46:29;4.97;;;3.90;;
1507;SDS011;745;48.586;10.032;2024-01-16T04:48:29;6.53;;;3.20;;
1507;SDS011;745;48.586;10.032;2024-01-16T04:50:30;5.87;;;2.60;;
1507;SDS011;745;48.586;10.032;2024-01-16T04:52:33;3.20;;;2.65;;
1507;SDS011;745;48.586;10.032;2024-01-16T04:54:33;4.60;;;3.20;;
1507;SDS011;745;48.586;10.032;2024-01-16T04:56:33;4.93;;;3.20;;
1507;SDS011;745;48.586;10.032;2024-01-16T04:58:34;4.77;;;3.20;;
1507;SDS011;745;48.586;10.032;2024-01-16T05:00:35;10.70;;;4.40;;
1507;SDS011;745;48.586;10.032;2024-01-16T05:02:35;3.53;;;3.22;;
1507;SDS011;745;48.586;10.032;2024-01-16T05:04:37;5.25;;;3.42;;
1507;SDS011;745;48.586;10.032;2024-01-16T05:06:38;6.30;;;3.47;;
1507;SDS011;745;48.586;10.032;2024-01-16T05:08:39;4.70;;;2.77;;
1507;SDS011;745;48.586;10.032;2024-01-16T05:10:39;3.30;;;3.00;;
1507;SDS011;745;48.586;10.032;2024-01-16T05:12:40;3.67;;;3.27;;
1507;SDS011;745;48.586;10.032;2024-01-16T05:14:41;4.85;;;3.53;;
1507;SDS011;745;48.586;10.032;2024-01-16T05:16:41;5.07;;;3.70;;
1507;SDS011;745;48.586;10.032;2024-01-16T05:18:42;7.27;;;3.30;;
1507;SDS011;745;48.586;10.032;2024-01-16T05:20:43;21.52;;;8.70;;
1507;SDS011;745;48.586;10.032;2024-01-16T05:22:43;16.50;;;9.10;;
1507;SDS011;745;48.586;10.032;2024-01-16T05:24:43;16.00;;;6.87;;
1507;SDS011;745;48.586;10.032;2024-01-16T05:26:44;10.33;;;7.20;;
1507;SDS011;745;48.586;10.032;2024-01-16T05:28:44;5.77;;;4.80;;
1507;SDS011;745;48.586;10.032;2024-01-16T05:30:45;4.20;;;3.80;;
1507;SDS011;745;48.586;10.032;2024-01-16T05:32:45;4.47;;;3.57;;
1507;SDS011;745;48.586;10.032;2024-01-16T05:34:46;4.27;;;3.10;;
1507;SDS011;745;48.586;10.032;2024-01-16T05:36:47;5.10;;;3.55;;
1507;SDS011;745;48.586;10.032;2024-01-16T05:38:47;5.13;;;4.10;;
1507;SDS011;745;48.586;10.032;2024-01-16T05:40:50;12.88;;;7.55;;
1507;SDS011;745;48.586;10.032;2024-01-16T05:42:50;11.87;;;8.77;;
1507;SDS011;745;48.586;10.032;2024-01-16T05:44:50;13.07;;;8.20;;
1507;SDS011;745;48.586;10.032;2024-01-16T05:46:53;10.45;;;7.35;;
1507;SDS011;745;48.586;10.032;2024-01-16T05:48:53;11.57;;;7.27;;
1507;SDS011;745;48.586;10.032;2024-01-16T05:50:54;15.40;;;9.10;;
1507;SDS011;745;48.586;10.032;2024-01-16T05:52:54;18.37;;;10.10;;
1507;SDS011;745;48.586;10.032;2024-01-16T05:54:54;18.83;;;11.03;;
1507;SDS011;745;48.586;10.032;2024-01-16T05:56:57;19.55;;;12.45;;
1507;SDS011;745;48.586;10.032;2024-01-16T05:58:57;45.07;;;23.40;;
1507;SDS011;745;48.586;10.032;2024-01-16T06:00:58;65.07;;;30.47;;
1507;SDS011;745;48.586;10.032;2024-01-16T06:02:58;78.70;;;41.73;;
1507;SDS011;745;48.586;10.032;2024-01-16T06:04:58;79.87;;;54.50;;
1507;SDS011;745;48.586;10.032;2024-01-16T06:06:59;56.00;;;43.63;;
1507;SDS011;745;48.586;10.032;2024-01-16T06:08:59;41.67;;;33.10;;
1507;SDS011;745;48.586;10.032;2024-01-16T06:11:04;36.00;;;25.70;;
1507;SDS011;745;48.586;10.032;2024-01-16T06:13:05;35.13;;;21.67;;
1507;SDS011;745;48.586;10.032;2024-01-16T06:15:05;31.63;;;18.07;;
1507;SDS011;745;48.586;10.032;2024-01-16T06:17:06;41.47;;;19.17;;
1507;SDS011;745;48.586;10.032;2024-01-16T06:19:06;50.10;;;24.13;;
1507;SDS011;745;48.586;10.032;2024-01-16T06:21:08;65.93;;;28.30;;
1507;SDS011;745;48.586;10.032;2024-01-16T06:23:08;86.10;;;39.00;;
1507;SDS011;745;48.586;10.032;2024-01-16T06:25:09;82.67;;;41.10;;
1507;SDS011;745;48.586;10.032;2024-01-16T06:27:09;26.87;;;16.30;;
1507;SDS011;745;48.586;10.032;2024-01-16T06:29:09;18.47;;;11.70;;
1507;SDS011;745;48.586;10.032;2024-01-16T06:31:10;16.20;;;9.23;;
1507;SDS011;745;48.586;10.032;2024-01-16T06:33:10;11.90;;;8.30;;
1507;SDS011;745;48.586;10.032;2024-01-16T06:35:12;6.67;;;5.00;;
1507;SDS011;745;48.586;10.032;2024-01-16T06:37:12;10.98;;;5.43;;
1507;SDS011;745;48.586;10.032;2024-01-16T06:39:13;5.83;;;5.00;;
1507;SDS011;745;48.586;10.032;2024-01-16T06:41:14;11.07;;;5.72;;
1507;SDS011;745;48.586;10.032;2024-01-16T06:43:14;8.83;;;6.03;;
1507;SDS011;745;48.586;10.032;2024-01-16T06:45:15;12.15;;;7.70;;
1507;SDS011;745;48.586;10.032;2024-01-16T06:47:16;10.10;;;6.80;;
1507;SDS011;745;48.586;10.032;2024-01-16T06:49:16;12.20;;;7.43;;
1507;SDS011;745;48.586;10.032;2024-01-16T06:51:17;9.20;;;6.40;;
1507;SDS011;745;48.586;10.032;2024-01-16T06:53:18;17.45;;;7.95;;
1507;SDS011;745;48.586;10.032;2024-01-16T06:55:18;12.43;;;8.60;;
1507;SDS011;745;48.586;10.032;2024-01-16T06:57:18;12.77;;;8.83;;
1507;SDS011;745;48.586;10.032;2024-01-16T06:59:19;9.93;;;7.60;;
1507;SDS011;745;48.586;10.032;2024-01-16T07:01:21;10.50;;;6.60;;
1507;SDS011;745;48.586;10.032;2024-01-16T07:03:21;30.80;;;17.90;;
1507;SDS011;745;48.586;10.032;2024-01-16T07:05:22;83.80;;;40.60;;
1507;SDS011;745;48.586;10.032;2024-01-16T07:07:23;101.43;;;44.23;;
1507;SDS011;745;48.586;10.032;2024-01-16T07:09:24;95.85;;;40.22;;
1507;SDS011;745;48.586;10.032;2024-01-16T07:11:25;71.90;;;33.27;;
1507;SDS011;745;48.586;10.032;2024-01-16T07:13:25;59.87;;;25.93;;
1507;SDS011;745;48.586;10.032;2024-01-16T07:15:25;21.50;;;10.50;;
1507;SDS011;745;48.586;10.032;2024-01-16T07:17:26;5.77;;;4.97;;
1507;SDS011;745;48.586;10.032;2024-01-16T07:19:26;8.73;;;5.70;;
1507;SDS011;745;48.586;10.032;2024-01-16T07:21:26;8.77;;;6.10;;
1507;SDS011;745;48.586;10.032;2024-01-16T07:23:27;8.95;;;7.32;;
1507;SDS011;745;48.586;10.032;2024-01-16T07:25:28;10.73;;;6.67;;
1507;SDS011;745;48.586;10.032;2024-01-16T07:27:28;11.30;;;7.10;;
1507;SDS011;745;48.586;10.032;2024-01-16T07:29:28;11.00;;;6.93;;
1507;SDS011;745;48.586;10.032;2024-01-16T07:31:29;9.53;;;7.37;;
1507;SDS011;745;48.586;10.032;2024-01-16T07:33:29;19.70;;;8.97;;
1507;SDS011;745;48.586;10.032;2024-01-16T07:35:30;17.27;;;10.67;;
1507;SDS011;745;48.586;10.032;2024-01-16T07:37:30;20.27;;;13.07;;
1507;SDS011;745;48.586;10.032;2024-01-16T07:39:30;23.40;;;13.77;;
1507;SDS011;745;48.586;10.032;2024-01-16T07:41:30;21.67;;;13.30;;
1507;SDS011;745;48.586;10.032;2024-01-16T07:43:31;20.73;;;12.10;;
1507;SDS011;745;48.586;10.032;2024-01-16T07:45:31;20.73;;;11.80;;
1507;SDS011;745;48.586;10.032;2024-01-16T07:47:32;16.83;;;11.27;;
1507;SDS011;745;48.586;10.032;2024-01-16T07:49:33;17.43;;;11.80;;
1507;SDS011;745;48.586;10.032;2024-01-16T07:51:33;22.73;;;14.23;;
1507;SDS011;745;48.586;10.032;2024-01-16T07:53:34;31.50;;;16.90;;
1507;SDS011;745;48.586;10.032;2024-01-16T07:55:35;27.13;;;16.90;;
1507;SDS011;745;48.586;10.032;2024-01-16T07:57:35;27.67;;;16.13;;
1507;SDS011;745;48.586;10.032;2024-01-16T07:59:36;21.50;;;12.70;;
1507;SDS011;745;48.586;10.032;2024-01-16T08:01:36;14.40;;;8.60;;
1507;SDS011;745;48.586;10.032;2024-01-16T08:03:37;16.58;;;9.30;;
1507;SDS011;745;48.586;10.032;2024-01-16T08:05:38;16.85;;;9.63;;
1507;SDS011;745;48.586;10.032;2024-01-16T08:07:39;11.77;;;7.70;;
1507;SDS011;745;48.586;10.032;2024-01-16T08:09:39;9.87;;;7.43;;
1507;SDS011;745;48.586;10.032;2024-01-16T08:11:39;8.47;;;5.50;;
1507;SDS011;745;48.586;10.032;2024-01-16T08:13:40;11.03;;;7.43;;
1507;SDS011;745;48.586;10.032;2024-01-16T08:15:40;13.67;;;5.07;;
1507;SDS011;745;48.586;10.032;2024-01-16T08:17:40;6.90;;;4.97;;
1507;SDS011;745;48.586;10.032;2024-01-16T08:19:41;5.10;;;4.60;;
1507;SDS011;745;48.586;10.032;2024-01-16T08:21:41;7.13;;;5.33;;
1507;SDS011;745;48.586;10.032;2024-01-16T08:23:41;10.27;;;5.20;;
1507;SDS011;745;48.586;10.032;2024-01-16T08:25:42;7.30;;;4.70;;
1507;SDS011;745;48.586;10.032;2024-01-16T08:27:42;5.33;;;3.90;;
1507;SDS011;745;48.586;10.032;2024-01-16T08:29:43;6.88;;;3.97;;
1507;SDS011;745;48.586;10.032;2024-01-16T08:31:44;5.13;;;3.90;;
1507;SDS011;745;48.586;10.032;2024-01-16T08:33:44;5.73;;;3.87;;
1507;SDS011;745;48.586;10.032;2024-01-16T08:35:45;5.50;;;3.83;;
1507;SDS011;745;48.586;10.032;2024-01-16T08:37:45;6.03;;;4.37;;
1507;SDS011;745;48.586;10.032;2024-01-16T08:39:45;8.40;;;4.50;;
1507;SDS011;745;48.586;10.032;2024-01-16T08:41:46;5.73;;;3.97;;
1507;SDS011;745;48.586;10.032;2024-01-16T08:43:46;7.40;;;4.40;;
1507;SDS011;745;48.586;10.032;2024-01-16T08:45:46;6.53;;;5.30;;
1507;SDS011;745;48.586;10.032;2024-01-16T08:47:50;4.28;;;3.78;;
1507;SDS011;745;48.586;10.032;2024-01-16T08:49:50;5.60;;;4.27;;
1507;SDS011;745;48.586;10.032;2024-01-16T08:51:51;8.40;;;4.47;;
1507;SDS011;745;48.586;10.032;2024-01-16T08:53:51;13.70;;;8.90;;
1507;SDS011;745;48.586;10.032;2024-01-16T08:55:52;16.27;;;9.70;;
1507;SDS011;745;48.586;10.032;2024-01-16T08:57:52;16.83;;;10.40;;
1507;SDS011;745;48.586;10.032;2024-01-16T08:59:52;8.10;;;5.77;;
1507;SDS011;745;48.586;10.032;2024-01-16T09:01:53;7.30;;;5.83;;
1507;SDS011;745;48.586;10.032;2024-01-16T09:03:53;5.20;;;4.70;;
1507;SDS011;745;48.586;10.032;2024-01-16T09:05:53;6.67;;;4.90;;
1507;SDS011;745;48.586;10.032;2024-01-16T09:07:54;5.67;;;4.47;;
1507;SDS011;745;48.586;10.032;2024-01-16T09:09:54;7.63;;;4.70;;
1507;SDS011;745;48.586;10.032;2024-01-16T09:11:55;6.40;;;4.73;;
1507;SDS011;745;48.586;10.032;2024-01-16T09:13:55;6.60;;;4.97;;
1507;SDS011;745;48.586;10.032;2024-01-16T09:15:55;7.83;;;5.13;;
1507;SDS011;745;48.586;10.032;2024-01-16T09:17:55;5.33;;;4.17;;
1507;SDS011;745;48.586;10.032;2024-01-16T09:19:57;7.25;;;5.05;;
1507;SDS011;745;48.586;10.032;2024-01-16T09:21:57;6.27;;;4.67;;
1507;SDS011;745;48.586;10.032;2024-01-16T09:23:57;6.27;;;5.10;;
1507;SDS011;745;48.586;10.032;2024-01-16T09:25:58;6.30;;;5.67;;
1507;SDS011;745;48.586;10.032;2024-01-16T09:27:58;8.37;;;5.50;;
1507;SDS011;745;48.586;10.032;2024-01-16T09:29:59;6.70;;;4.40;;
1507;SDS011;745;48.586;10.032;2024-01-16T09:31:59;6.50;;;5.40;;
1507;SDS011;745;48.586;10.032;2024-01-16T09:34:00;9.23;;;7.50;;
1507;SDS011;745;48.586;10.032;2024-01-16T09:36:00;9.27;;;5.40;;
1507;SDS011;745;48.586;10.032;2024-01-16T09:38:00;9.63;;;6.60;;
1507;SDS011;745;48.586;10.032;2024-01-16T09:40:00;9.00;;;5.70;;
1507;SDS011;745;48.586;10.032;2024-01-16T09:42:01;7.80;;;6.00;;
1507;SDS011;745;48.586;10.032;2024-01-16T09:44:01;9.07;;;6.00;;
1507;SDS011;745;48.586;10.032;2024-01-16T09:46:02;6.63;;;5.87;;
1507;SDS011;745;48.586;10.032;2024-01-16T09:48:04;9.80;;;5.43;;
1507;SDS011;745;48.586;10.032;2024-01-16T09:50:05;5.40;;;4.83;;
1507;SDS011;745;48.586;10.032;2024-01-16T09:52:06;7.07;;;5.20;;
1507;SDS011;745;48.586;10.032;2024-01-16T09:54:06;8.70;;;5.23;;
1507;SDS011;745;48.586;10.032;2024-01-16T09:56:14;6.00;;;4.03;;
1507;SDS011;745;48.586;10.032;2024-01-16T09:58:15;6.20;;;4.72;;
1507;SDS011;745;48.586;10.032;2024-01-16T10:00:19;12.25;;;8.15;;
1507;SDS011;745;48.586;10.032;2024-01-16T10:02:19;11.20;;;7.83;;
1507;SDS011;745;48.586;10.032;2024-01-16T10:04:21;6.65;;;5.40;;
1507;SDS011;745;48.586;10.032;2024-01-16T10:06:21;8.37;;;5.50;;
1507;SDS011;745;48.586;10.032;2024-01-16T10:08:23;8.02;;;5.25;;
1507;SDS011;745;48.586;10.032;2024-01-16T10:10:23;7.20;;;4.93;;
1507;SDS011;745;48.586;10.032;2024-01-16T10:12:28;4.50;;;3.15;;
1507;SDS011;745;48.586;10.032;2024-01-16T10:14:28;3.77;;;3.20;;
1507;SDS011;745;48.586;10.032;2024-01-16T10:19:04;3.95;;;3.15;;
1507;SDS011;745;48.586;10.032;2024-01-16T10:21:05;3.30;;;3.00;;
1507;SDS011;745;48.586;10.032;2024-01-16T10:23:24;2.50;;;2.30;;
1507;SDS011;745;48.586;10.032;2024-01-16T10:25:24;3.83;;;3.05;;
1507;SDS011;745;48.586;10.032;2024-01-16T10:27:24;5.53;;;2.90;;
1507;SDS011;745;48.586;10.032;2024-01-16T10:29:30;4.63;;;2.75;;
1507;SDS011;745;48.586;10.032;2024-01-16T10:31:31;4.40;;;3.30;;
1507;SDS011;745;48.586;10.032;2024-01-16T10:33:31;3.20;;;2.90;;
1507;SDS011;745;48.586;10.032;2024-01-16T10:35:32;3.43;;;3.13;;
1507;SDS011;745;48.586;10.032;2024-01-16T10:37:51;6.27;;;3.80;;
1507;SDS011;745;48.586;10.032;2024-01-16T10:39:52;3.40;;;3.10;;
1507;SDS011;745;48.586;10.032;2024-01-16T10:41:56;3.47;;;2.60;;
1507;SDS011;745;48.586;10.032;2024-01-16T10:44:04;4.38;;;2.92;;
1507;SDS011;745;48.586;10.032;2024-01-16T10:48:08;3.30;;;2.90;;
1507;SDS011;745;48.586;10.032;2024-01-16T10:50:09;4.60;;;2.80;;
1507;SDS011;745;48.586;10.032;2024-01-16T10:52:09;2.80;;;2.60;;
1507;SDS011;745;48.586;10.032;2024-01-16T10:54:12;4.85;;;3.13;;
1507;SDS011;745;48.586;10.032;2024-01-16T10:56:14;3.28;;;2.70;;
1507;SDS011;745;48.586;10.032;2024-01-16T10:58:21;4.07;;;3.25;;
1507;SDS011;745;48.586;10.032;2024-01-16T11:00:23;3.65;;;2.60;;
1507;SDS011;745;48.586;10.032;2024-01-16T11:02:24;3.00;;;2.70;;
1507;SDS011;745;48.586;10.032;2024-01-16T11:04:29;3.10;;;2.80;;
1507;SDS011;745;48.586;10.032;2024-01-16T11:06:30;3.80;;;2.30;;
1507;SDS011;745;48.586;10.032;2024-01-16T11:08:30;5.03;;;2.63;;
1507;SDS011;745;48.586;10.032;2024-01-16T11:10:33;2.78;;;2.38;;
1507;SDS011;745;48.586;10.032;2024-01-16T11:12:34;2.50;;;2.30;;
1507;SDS011;745;48.586;10.032;2024-01-16T11:14:35;3.90;;;2.30;;
1507;SDS011;745;48.586;10.032;2024-01-16T11:16:36;5.68;;;2.25;;
1507;SDS011;745;48.586;10.032;2024-01-16T11:18:37;3.10;;;2.13;;
1507;SDS011;745;48.586;10.032;2024-01-16T11:20:37;1.93;;;1.83;;
1507;SDS011;745;48.586;10.032;2024-01-16T11:22:39;2.88;;;1.40;;
1507;SDS011;745;48.586;10.032;2024-01-16T11:24:41;2.17;;;1.90;;
1507;SDS011;745;48.586;10.032;2024-01-16T11:26:42;2.97;;;1.75;;
1507;SDS011;745;48.586;10.032;2024-01-16T11:28:43;2.33;;;2.00;;
1507;SDS011;745;48.586;10.032;2024-01-16T11:30:43;3.60;;;2.47;;
1507;SDS011;745;48.586;10.032;2024-01-16T11:32:44;2.80;;;2.33;;
1507;SDS011;745;48.586;10.032;2024-01-16T11:36:51;2.20;;;2.00;;
1507;SDS011;745;48.586;10.032;2024-01-16T11:38:55;2.67;;;2.00;;
1507;SDS011;745;48.586;10.032;2024-01-16T11:40:57;3.03;;;2.05;;
1507;SDS011;745;48.586;10.032;2024-01-16T11:42:57;4.30;;;2.10;;
1507;SDS011;745;48.586;10.032;2024-01-16T11:44:57;1.97;;;1.77;;
1507;SDS011;745;48.586;10.032;2024-01-16T11:47:01;6.10;;;2.73;;
1507;SDS011;745;48.586;10.032;2024-01-16T11:49:03;10.65;;;6.00;;
1507;SDS011;745;48.586;10.032;2024-01-16T11:51:22;6.93;;;4.97;;
1507;SDS011;745;48.586;10.032;2024-01-16T11:53:36;5.20;;;2.97;;
1507;SDS011;745;48.586;10.032;2024-01-16T11:55:59;8.90;;;4.13;;
1507;SDS011;745;48.586;10.032;2024-01-16T11:58:12;6.32;;;2.90;;
1507;SDS011;745;48.586;10.032;2024-01-16T12:00:40;4.47;;;3.17;;
1507;SDS011;745;48.586;10.032;2024-01-16T12:04:58;8.13;;;3.83;;
1507;SDS011;745;48.586;10.032;2024-01-16T12:07:03;5.30;;;3.38;;
1507;SDS011;745;48.586;10.032;2024-01-16T12:09:13;5.83;;;3.27;;
1507;SDS011;745;48.586;10.032;2024-01-16T12:11:18;6.93;;;3.85;;
1507;SDS011;745;48.586;10.032;2024-01-16T12:13:18;5.60;;;3.70;;
1507;SDS011;745;48.586;10.032;2024-01-16T12:15:20;9.23;;;3.63;;
1507;SDS011;745;48.586;10.032;2024-01-16T12:17:20;6.18;;;3.70;;
1507;SDS011;745;48.586;10.032;2024-01-16T12:19:21;5.40;;;3.90;;
1507;SDS011;745;48.586;10.032;2024-01-16T12:21:22;6.90;;;3.40;;
1507;SDS011;745;48.586;10.032;2024-01-16T12:23:23;4.03;;;3.63;;
1507;SDS011;745;48.586;10.032;2024-01-16T12:25:23;6.47;;;3.93;;
1507;SDS011;745;48.586;10.032;2024-01-16T12:27:24;9.25;;;3.80;;
1507;SDS011;745;48.586;10.032;2024-01-16T12:29:25;11.50;;;5.17;;
1507;SDS011;745;48.586;10.032;2024-01-16T12:31:26;8.90;;;4.57;;
1507;SDS011;745;48.586;10.032;2024-01-16T12:33:27;5.55;;;4.40;;
1507;SDS011;745;48.586;10.032;2024-01-16T12:35:27;6.93;;;4.50;;
1507;SDS011;745;48.586;10.032;2024-01-16T12:37:28;7.77;;;5.20;;